createdAt,value
2022-10-22T00:00:48.418Z,99.99
2022-10-22T00:01:48.450Z,99.99
2022-10-22T00:02:48.460Z,99.99
2022-10-22T00:03:55.925Z,99.99
2022-10-22T00:04:48.396Z,99.99
2022-10-22T00:05:48.436Z,99.99
2022-10-22T00:06:48.409Z,99.99
2022-10-22T00:07:48.449Z,99.99
2022-10-22T00:08:48.465Z,99.99
2022-10-22T00:09:48.342Z,99.99
2022-10-22T00:10:48.303Z,99.99
2022-10-22T00:11:48.261Z,99.99
2022-10-22T00:12:48.310Z,99.99
2022-10-22T00:13:48.390Z,99.99
2022-10-22T00:14:48.237Z,99.99
2022-10-22T00:15:48.254Z,99.99
2022-10-22T00:16:48.364Z,99.99
2022-10-22T00:17:48.378Z,99.99
2022-10-22T00:18:48.296Z,99.99
2022-10-22T00:19:48.307Z,99.99
2022-10-22T00:20:48.271Z,99.99
2022-10-22T00:22:10.497Z,99.99
2022-10-22T00:22:49.313Z,99.99
2022-10-22T00:23:48.293Z,99.99
2022-10-22T00:24:48.273Z,99.99
2022-10-22T00:25:48.251Z,99.99
2022-10-22T00:26:48.275Z,99.99
2022-10-22T00:27:48.257Z,99.99
2022-10-22T00:28:48.293Z,99.99
2022-10-22T00:29:48.265Z,99.99
2022-10-22T00:30:48.250Z,99.99
2022-10-22T00:31:48.140Z,99.99
2022-10-22T00:32:48.152Z,99.99
2022-10-22T00:33:48.203Z,99.99
2022-10-22T00:34:48.090Z,99.99
2022-10-22T00:35:48.210Z,99.99
2022-10-22T00:36:48.084Z,99.99
2022-10-22T00:37:48.219Z,99.99
2022-10-22T00:38:48.149Z,99.99
2022-10-22T00:40:07.300Z,99.99
2022-10-22T00:40:49.113Z,99.99
2022-10-22T00:41:48.138Z,99.99
2022-10-22T00:42:48.127Z,99.99
2022-10-22T00:43:48.109Z,99.99
2022-10-22T00:44:48.278Z,99.99
2022-10-22T00:45:48.130Z,99.99
2022-10-22T00:46:48.070Z,99.99
2022-10-22T00:47:48.099Z,99.99
2022-10-22T00:48:48.072Z,99.99
2022-10-22T00:49:48.078Z,99.99
2022-10-22T00:50:48.105Z,99.99
2022-10-22T00:51:47.986Z,99.99
2022-10-22T00:52:47.984Z,99.99
2022-10-22T00:53:49.012Z,99.99
2022-10-22T00:54:48.029Z,99.99
2022-10-22T00:55:48.006Z,99.99
2022-10-22T00:56:47.951Z,99.99
2022-10-22T00:57:47.937Z,99.99
2022-10-22T00:58:47.943Z,99.99
2022-10-22T00:59:47.936Z,99.99
2022-10-22T01:00:48.079Z,99.99
2022-10-22T01:01:49.018Z,99.99
2022-10-22T01:02:48.038Z,99.99
2022-10-22T01:03:48.016Z,99.99
2022-10-22T01:04:48.553Z,99.99
2022-10-22T01:05:47.976Z,99.99
2022-10-22T01:06:47.993Z,99.99
2022-10-22T01:07:47.971Z,99.99
2022-10-22T01:08:47.998Z,99.99
2022-10-22T01:09:47.940Z,99.99
2022-10-22T01:10:47.871Z,99.99
2022-10-22T01:11:47.873Z,99.99
2022-10-22T01:12:47.828Z,99.99
2022-10-22T01:13:47.843Z,99.99
2022-10-22T01:14:47.794Z,99.99
2022-10-22T01:15:47.833Z,99.99
2022-10-22T01:16:47.863Z,99.99
2022-10-22T01:17:47.846Z,99.99
2022-10-22T01:18:47.804Z,99.99
2022-10-22T01:19:47.868Z,99.99
2022-10-22T01:20:47.845Z,99.99
2022-10-22T01:21:47.891Z,99.99
2022-10-22T01:22:47.863Z,99.99
2022-10-22T01:23:47.877Z,99.99
2022-10-22T01:24:47.824Z,99.99
2022-10-22T01:25:47.957Z,99.99
2022-10-22T01:26:47.830Z,99.99
2022-10-22T01:27:47.808Z,99.99
2022-10-22T01:28:47.846Z,99.99
2022-10-22T01:29:47.724Z,99.99
2022-10-22T01:30:47.739Z,99.99
2022-10-22T01:31:47.669Z,99.99
2022-10-22T01:32:47.758Z,99.99
2022-10-22T01:33:47.743Z,99.99
2022-10-22T01:34:47.675Z,99.99
2022-10-22T01:35:47.694Z,99.99
2022-10-22T01:36:47.657Z,99.99
2022-10-22T01:37:47.677Z,99.99
2022-10-22T01:38:47.812Z,99.99
2022-10-22T01:39:47.812Z,99.99
2022-10-22T01:40:47.733Z,99.99
2022-10-22T01:41:47.714Z,99.99
2022-10-22T01:42:47.706Z,99.99
2022-10-22T01:43:47.682Z,99.99
2022-10-22T01:44:47.786Z,99.99
2022-10-22T01:45:47.707Z,99.99
2022-10-22T01:46:47.759Z,99.99
2022-10-22T01:47:47.670Z,99.99
2022-10-22T01:48:47.609Z,99.99
2022-10-22T01:49:47.755Z,99.99
2022-10-22T01:50:47.584Z,99.99
2022-10-22T01:51:47.606Z,99.99
2022-10-22T01:52:47.575Z,99.99
2022-10-22T01:53:47.610Z,99.99
2022-10-22T01:54:47.571Z,99.99
2022-10-22T01:55:47.606Z,99.99
2022-10-22T01:56:47.531Z,99.99
2022-10-22T01:57:47.524Z,99.99
2022-10-22T01:58:47.525Z,99.99
2022-10-22T01:59:47.602Z,99.99
2022-10-22T02:00:47.699Z,99.99
2022-10-22T02:01:47.619Z,99.99
2022-10-22T02:03:47.566Z,99.80
2022-10-22T02:04:47.569Z,99.85
2022-10-22T02:05:47.594Z,99.99
2022-10-22T02:06:47.565Z,99.95
2022-10-22T02:07:47.580Z,99.99
2022-10-22T02:08:47.589Z,99.99
2022-10-22T02:09:47.578Z,99.99
2022-10-22T02:10:47.563Z,99.99
2022-10-22T02:11:47.919Z,99.85
2022-10-22T02:12:47.420Z,99.75
2022-10-22T02:13:47.419Z,99.90
2022-10-22T02:14:47.388Z,99.99
2022-10-22T02:15:47.400Z,99.99
2022-10-22T02:16:47.415Z,99.99
2022-10-22T02:17:47.423Z,99.99
2022-10-22T02:18:47.360Z,99.99
2022-10-22T02:19:47.351Z,99.99
2022-10-22T02:20:47.360Z,99.99
2022-10-22T02:21:47.415Z,99.99
2022-10-22T02:22:47.440Z,99.44
2022-10-22T02:23:47.455Z,99.99
2022-10-22T02:24:47.447Z,99.99
2022-10-22T02:25:47.431Z,99.99
2022-10-22T02:26:47.423Z,99.99
2022-10-22T02:27:47.413Z,99.99
2022-10-22T02:28:47.455Z,99.99
2022-10-22T02:29:47.409Z,99.99
2022-10-22T02:30:47.414Z,99.99
2022-10-22T02:31:47.275Z,99.99
2022-10-22T02:32:47.297Z,99.99
2022-10-22T02:33:47.330Z,99.99
2022-10-22T02:34:47.283Z,99.99
2022-10-22T02:35:47.319Z,99.99
2022-10-22T02:36:49.717Z,99.99
2022-10-22T02:37:47.236Z,99.99
2022-10-22T02:38:47.221Z,99.99
2022-10-22T02:39:47.346Z,99.99
2022-10-22T02:40:47.297Z,99.99
2022-10-22T02:41:47.295Z,99.99
2022-10-22T02:42:47.295Z,99.99
2022-10-22T02:43:47.306Z,99.99
2022-10-22T02:44:47.336Z,99.99
2022-10-22T02:45:47.297Z,99.99
2022-10-22T02:46:47.253Z,99.99
2022-10-22T02:47:47.241Z,99.99
2022-10-22T02:48:47.263Z,99.99
2022-10-22T02:49:47.246Z,99.99
2022-10-22T02:50:47.651Z,99.99
2022-10-22T02:51:47.270Z,99.99
2022-10-22T02:52:47.128Z,99.99
2022-10-22T02:53:47.139Z,99.99
2022-10-22T02:54:47.222Z,99.99
2022-10-22T02:55:47.145Z,99.99
2022-10-22T02:56:47.133Z,99.99
2022-10-22T02:57:47.163Z,99.99
2022-10-22T02:58:47.078Z,99.99
2022-10-22T02:59:47.173Z,99.99
2022-10-22T03:00:47.256Z,99.99
2022-10-22T03:01:47.134Z,99.99
2022-10-22T03:02:47.143Z,99.99
2022-10-22T03:03:47.146Z,99.99
2022-10-22T03:04:47.135Z,99.99
2022-10-22T03:05:47.127Z,99.99
2022-10-22T03:06:47.283Z,99.99
2022-10-22T03:07:47.123Z,99.99
2022-10-22T03:08:47.131Z,99.99
2022-10-22T03:09:47.076Z,99.99
2022-10-22T03:10:47.012Z,99.99
2022-10-22T03:11:47.033Z,99.99
2022-10-22T03:12:47.130Z,99.99
2022-10-22T03:13:46.994Z,99.99
2022-10-22T03:14:47.111Z,99.99
2022-10-22T03:15:47.071Z,99.99
2022-10-22T03:16:47.144Z,99.99
2022-10-22T03:17:47.042Z,99.99
2022-10-22T03:18:47.113Z,99.99
2022-10-22T03:19:47.072Z,99.99
2022-10-22T03:20:47.031Z,99.99
2022-10-22T03:21:47.040Z,99.99
2022-10-22T03:22:47.054Z,99.99
2022-10-22T03:23:47.988Z,99.99
2022-10-22T03:24:46.875Z,99.99
2022-10-22T03:25:46.963Z,99.99
2022-10-22T03:26:46.904Z,99.99
2022-10-22T03:27:46.898Z,99.99
2022-10-22T03:28:46.905Z,99.99
2022-10-22T03:29:46.840Z,99.99
2022-10-22T03:30:47.059Z,99.99
2022-10-22T03:31:46.994Z,99.99
2022-10-22T03:32:46.996Z,99.99
2022-10-22T03:33:46.944Z,99.99
2022-10-22T03:34:47.031Z,99.99
2022-10-22T03:35:46.933Z,99.99
2022-10-22T03:36:46.938Z,99.99
2022-10-22T03:37:46.960Z,99.99
2022-10-22T03:38:46.977Z,99.99
2022-10-22T03:39:46.972Z,99.99
2022-10-22T03:40:46.872Z,99.99
2022-10-22T03:41:46.943Z,99.99
2022-10-22T03:42:46.851Z,99.99
2022-10-22T03:43:46.889Z,99.99
2022-10-22T03:44:47.736Z,99.99
2022-10-22T03:45:46.732Z,99.99
2022-10-22T03:46:46.729Z,99.99
2022-10-22T03:47:46.747Z,99.99
2022-10-22T03:48:46.901Z,99.99
2022-10-22T03:49:46.744Z,99.99
2022-10-22T03:50:46.730Z,99.99
2022-10-22T03:51:46.695Z,99.99
2022-10-22T03:52:46.779Z,99.99
2022-10-22T03:53:46.784Z,99.99
2022-10-22T03:54:47.022Z,99.99
2022-10-22T03:55:46.785Z,99.99
2022-10-22T03:56:46.769Z,99.99
2022-10-22T03:57:46.775Z,99.99
2022-10-22T03:58:46.650Z,99.99
2022-10-22T03:59:46.773Z,99.99
2022-10-22T04:00:46.892Z,99.99
2022-10-22T04:01:46.716Z,99.99
2022-10-22T04:02:46.798Z,99.99
2022-10-22T04:03:46.726Z,99.99
2022-10-22T04:04:46.702Z,99.99
2022-10-22T04:05:46.657Z,99.99
2022-10-22T04:06:46.594Z,99.99
2022-10-22T04:07:46.666Z,99.99
2022-10-22T04:08:46.691Z,99.99
2022-10-22T04:09:46.590Z,99.99
2022-10-22T04:10:46.689Z,99.99
2022-10-22T04:11:46.683Z,99.99
2022-10-22T04:12:46.667Z,99.99
2022-10-22T04:13:46.665Z,99.99
2022-10-22T04:14:46.661Z,99.99
2022-10-22T04:16:46.678Z,99.99
2022-10-22T04:17:46.595Z,99.99
2022-10-22T04:18:46.652Z,99.99
2022-10-22T04:19:47.305Z,99.99
2022-10-22T04:20:46.535Z,99.99
2022-10-22T04:21:46.567Z,99.99
2022-10-22T04:22:46.593Z,99.99
2022-10-22T04:23:46.487Z,99.99
2022-10-22T04:24:46.618Z,99.99
2022-10-22T04:25:46.457Z,99.99
2022-10-22T04:26:46.473Z,99.99
2022-10-22T04:27:46.641Z,99.99
2022-10-22T04:28:46.545Z,99.99
2022-10-22T04:29:46.553Z,99.99
2022-10-22T04:30:46.523Z,99.99
2022-10-22T04:31:46.541Z,99.99
2022-10-22T04:32:46.602Z,99.99
2022-10-22T04:33:46.513Z,99.99
2022-10-22T04:34:46.549Z,99.99
2022-10-22T04:35:46.487Z,99.99
2022-10-22T04:36:46.494Z,99.99
2022-10-22T04:37:46.491Z,99.99
2022-10-22T04:38:46.425Z,99.99
2022-10-22T04:39:46.377Z,99.99
2022-10-22T04:40:46.380Z,99.99
2022-10-22T04:41:46.431Z,99.99
2022-10-22T04:42:46.375Z,99.99
2022-10-22T04:43:46.353Z,99.99
2022-10-22T04:44:46.338Z,99.99
2022-10-22T04:45:46.458Z,99.99
2022-10-22T04:46:46.478Z,99.99
2022-10-22T04:47:46.388Z,99.99
2022-10-22T04:48:46.514Z,99.99
2022-10-22T04:49:46.427Z,99.99
2022-10-22T04:50:46.434Z,99.99
2022-10-22T04:51:46.350Z,99.99
2022-10-22T04:52:46.394Z,99.99
2022-10-22T04:53:46.350Z,99.99
2022-10-22T04:54:46.409Z,99.99
2022-10-22T04:55:46.349Z,99.99
2022-10-22T04:56:46.231Z,99.99
2022-10-22T04:57:46.269Z,99.99
2022-10-22T04:58:46.323Z,99.99
2022-10-22T04:59:46.671Z,99.99
2022-10-22T05:00:46.238Z,99.99
2022-10-22T05:01:46.236Z,99.99
2022-10-22T05:02:46.220Z,99.99
2022-10-22T05:03:46.281Z,99.99
2022-10-22T05:04:46.278Z,99.99
2022-10-22T05:05:46.332Z,99.99
2022-10-22T05:06:46.318Z,99.99
2022-10-22T05:07:46.286Z,99.99
2022-10-22T05:08:46.329Z,99.99
2022-10-22T05:09:46.310Z,99.99
2022-10-22T05:10:46.262Z,99.99
2022-10-22T05:11:46.401Z,99.99
2022-10-22T05:12:46.241Z,99.99
2022-10-22T05:13:46.250Z,99.99
2022-10-22T05:14:46.181Z,99.99
2022-10-22T05:15:46.105Z,99.99
2022-10-22T05:17:46.214Z,99.99
2022-10-22T05:18:46.229Z,99.99
2022-10-22T05:19:46.179Z,99.99
2022-10-22T05:20:46.197Z,99.99
2022-10-22T05:21:46.205Z,99.99
2022-10-22T05:22:46.164Z,99.99
2022-10-22T05:23:46.174Z,99.99
2022-10-22T05:24:46.151Z,99.99
2022-10-22T05:25:46.207Z,99.99
2022-10-22T05:26:46.128Z,99.99
2022-10-22T05:27:46.198Z,99.99
2022-10-22T05:28:46.097Z,99.99
2022-10-22T05:29:46.122Z,99.99
2022-10-22T05:30:46.134Z,99.99
2022-10-22T05:31:46.023Z,99.99
2022-10-22T05:32:46.049Z,99.99
2022-10-22T05:33:46.013Z,99.99
2022-10-22T05:34:46.790Z,99.99
2022-10-22T05:35:46.855Z,99.99
2022-10-22T05:36:47.085Z,99.99
2022-10-22T05:37:46.179Z,99.99
2022-10-22T05:38:46.052Z,99.99
2022-10-22T05:39:46.070Z,99.99
2022-10-22T05:40:46.025Z,99.99
2022-10-22T05:41:46.065Z,99.99
2022-10-22T05:42:46.017Z,99.99
2022-10-22T05:43:46.047Z,99.99
2022-10-22T05:44:46.014Z,99.99
2022-10-22T05:45:45.995Z,99.99
2022-10-22T05:46:45.996Z,99.99
2022-10-22T05:47:45.953Z,99.99
2022-10-22T05:48:45.933Z,99.99
2022-10-22T05:49:45.889Z,99.99
2022-10-22T05:50:45.963Z,99.99
2022-10-22T05:51:45.865Z,99.99
2022-10-22T05:52:45.882Z,99.99
2022-10-22T05:53:45.848Z,99.99
2022-10-22T05:54:45.922Z,99.99
2022-10-22T05:55:45.862Z,99.99
2022-10-22T05:56:45.941Z,99.99
2022-10-22T05:57:45.993Z,99.99
2022-10-22T05:58:45.819Z,99.99
2022-10-22T05:59:45.966Z,99.99
2022-10-22T06:00:45.873Z,99.99
2022-10-22T06:01:45.963Z,99.99
2022-10-22T06:02:45.878Z,99.99
2022-10-22T06:03:45.884Z,99.99
2022-10-22T06:04:45.870Z,99.99
2022-10-22T06:05:46.264Z,99.99
2022-10-22T06:06:45.863Z,99.99
2022-10-22T06:07:45.849Z,99.99
2022-10-22T06:08:45.882Z,99.99
2022-10-22T06:09:45.846Z,99.99
2022-10-22T06:10:45.882Z,99.99
2022-10-22T06:11:45.718Z,99.99
2022-10-22T06:12:45.714Z,99.99
2022-10-22T06:13:45.866Z,99.99
2022-10-22T06:14:45.700Z,99.99
2022-10-22T06:15:45.710Z,99.99
2022-10-22T06:16:45.872Z,99.99
2022-10-22T06:18:18.615Z,99.99
2022-10-22T06:18:46.685Z,99.99
2022-10-22T06:19:46.693Z,99.99
2022-10-22T06:20:45.832Z,99.99
2022-10-22T06:21:45.810Z,99.99
2022-10-22T06:22:45.746Z,99.99
2022-10-22T06:23:45.712Z,99.99
2022-10-22T06:24:45.724Z,99.99
2022-10-22T06:25:45.736Z,99.99
2022-10-22T06:26:45.676Z,99.99
2022-10-22T06:27:45.762Z,99.99
2022-10-22T06:28:45.731Z,99.99
2022-10-22T06:29:45.685Z,99.65
2022-10-22T06:30:46.669Z,99.69
2022-10-22T06:31:46.619Z,99.75
2022-10-22T06:32:45.687Z,99.49
2022-10-22T06:33:46.646Z,98.99
2022-10-22T06:34:45.757Z,98.84
2022-10-22T06:35:45.651Z,98.88
2022-10-22T06:36:45.750Z,99.55
2022-10-22T06:37:45.712Z,98.79
2022-10-22T06:38:45.641Z,98.23
2022-10-22T06:39:45.626Z,98.33
2022-10-22T06:40:45.688Z,98.58
2022-10-22T06:41:45.654Z,98.63
2022-10-22T06:42:45.599Z,98.43
2022-10-22T06:43:45.619Z,97.97
2022-10-22T06:44:45.604Z,97.83
2022-10-22T06:45:45.569Z,98.38
2022-10-22T06:46:45.595Z,97.77
2022-10-22T06:47:45.582Z,97.87
2022-10-22T06:48:45.505Z,97.92
2022-10-22T06:49:45.499Z,97.52
2022-10-22T06:50:45.552Z,97.56
2022-10-22T06:51:45.584Z,97.83
2022-10-22T06:52:45.579Z,97.67
2022-10-22T06:53:45.639Z,97.72
2022-10-22T06:54:45.532Z,97.52
2022-10-22T06:55:45.620Z,97.72
2022-10-22T06:56:45.490Z,97.22
2022-10-22T06:57:45.566Z,97.22
2022-10-22T06:58:45.436Z,97.02
2022-10-22T06:59:45.638Z,96.91
2022-10-22T07:00:45.493Z,96.51
2022-10-22T07:01:45.538Z,96.30
2022-10-22T07:02:45.444Z,96.91
2022-10-22T07:03:45.490Z,96.41
2022-10-22T07:04:45.503Z,97.16
2022-10-22T07:05:45.376Z,96.91
2022-10-22T07:06:45.376Z,96.96
2022-10-22T07:07:45.381Z,97.06
2022-10-22T07:08:45.455Z,97.36
2022-10-22T07:09:45.339Z,97.47
2022-10-22T07:10:45.408Z,97.36
2022-10-22T07:11:45.329Z,97.67
2022-10-22T07:12:45.335Z,97.56
2022-10-22T07:13:45.293Z,97.26
2022-10-22T07:14:45.429Z,97.87
2022-10-22T07:15:45.441Z,97.87
2022-10-22T07:16:45.475Z,98.32
2022-10-22T07:17:45.430Z,98.52
2022-10-22T07:18:45.448Z,98.28
2022-10-22T07:19:55.845Z,98.58
2022-10-22T07:20:46.300Z,98.18
2022-10-22T07:21:45.350Z,98.07
2022-10-22T07:22:45.459Z,97.97
2022-10-22T07:23:45.370Z,98.33
2022-10-22T07:24:45.418Z,98.18
2022-10-22T07:25:45.346Z,97.92
2022-10-22T07:26:45.348Z,97.77
2022-10-22T07:27:45.321Z,97.06
2022-10-22T07:28:45.314Z,97.42
2022-10-22T07:29:45.393Z,97.62
2022-10-22T07:30:45.277Z,97.52
2022-10-22T07:31:45.312Z,97.42
2022-10-22T07:32:45.206Z,97.52
2022-10-22T07:33:45.207Z,96.87
2022-10-22T07:34:45.178Z,97.27
2022-10-22T07:35:51.655Z,97.38
2022-10-22T07:36:45.250Z,97.17
2022-10-22T07:37:45.178Z,97.07
2022-10-22T07:38:45.138Z,97.33
2022-10-22T07:39:45.152Z,96.72
2022-10-22T07:40:45.173Z,96.92
2022-10-22T07:41:45.320Z,96.62
2022-10-22T07:42:46.289Z,96.31
2022-10-22T07:43:45.301Z,95.81
2022-10-22T07:44:45.185Z,95.91
2022-10-22T07:45:45.303Z,96.06
2022-10-22T07:46:48.140Z,96.51
2022-10-22T07:47:46.376Z,96.31
2022-10-22T07:48:45.181Z,96.78
2022-10-22T07:49:45.145Z,96.67
2022-10-22T07:51:45.146Z,96.27
2022-10-22T07:52:45.145Z,96.47
2022-10-22T07:53:45.186Z,95.86
2022-10-22T07:54:45.148Z,95.46
2022-10-22T07:55:45.135Z,95.15
2022-10-22T07:56:45.170Z,95.56
2022-10-22T07:57:45.117Z,95.76
2022-10-22T07:58:45.119Z,95.56
2022-10-22T07:59:45.029Z,95.15
2022-10-22T08:00:44.987Z,95.15
2022-10-22T08:01:45.017Z,95.21
2022-10-22T08:02:44.989Z,95.42
2022-10-22T08:03:45.041Z,94.95
2022-10-22T08:04:45.232Z,95.31
2022-10-22T08:05:45.078Z,95.42
2022-10-22T08:06:47.249Z,94.91
2022-10-22T08:07:45.057Z,94.71
2022-10-22T08:08:45.125Z,94.00
2022-10-22T08:09:45.114Z,94.60
2022-10-22T08:10:45.144Z,95.21
2022-10-22T08:11:44.978Z,95.42
2022-10-22T08:12:44.997Z,95.21
2022-10-22T08:13:45.816Z,95.21
2022-10-22T08:14:46.180Z,94.81
2022-10-22T08:16:45.995Z,94.81
2022-10-22T08:17:44.984Z,95.11
2022-10-22T08:18:45.033Z,95.21
2022-10-22T08:19:44.974Z,94.81
2022-10-22T08:20:45.103Z,94.96
2022-10-22T08:21:44.956Z,94.20
2022-10-22T08:22:44.961Z,94.20
2022-10-22T08:23:45.206Z,94.91
2022-10-22T08:24:44.895Z,94.71
2022-10-22T08:25:44.850Z,94.71
2022-10-22T08:26:44.937Z,94.20
2022-10-22T08:27:45.245Z,94.20
2022-10-22T08:28:44.969Z,94.81
2022-10-22T08:29:44.786Z,94.66
2022-10-22T08:30:44.934Z,93.75
2022-10-22T08:31:44.914Z,94.10
2022-10-22T08:32:44.856Z,94.15
2022-10-22T08:34:00.434Z,94.60
2022-10-22T08:34:45.743Z,94.56
2022-10-22T08:35:44.843Z,94.46
2022-10-22T08:36:44.886Z,95.17
2022-10-22T08:37:44.861Z,94.60
2022-10-22T08:38:44.807Z,94.71
2022-10-22T08:39:44.849Z,94.71
2022-10-22T08:40:44.964Z,94.81
2022-10-22T08:41:44.806Z,94.56
2022-10-22T08:42:45.808Z,94.91
2022-10-22T08:43:44.803Z,95.07
2022-10-22T08:44:45.781Z,94.56
2022-10-22T08:45:44.815Z,94.36
2022-10-22T08:46:44.743Z,94.96
2022-10-22T08:47:44.631Z,94.66
2022-10-22T08:48:44.725Z,94.76
2022-10-22T08:49:44.809Z,94.66
2022-10-22T08:50:44.643Z,94.66
2022-10-22T08:51:44.682Z,94.31
2022-10-22T08:52:44.639Z,94.66
2022-10-22T08:53:44.744Z,94.31
2022-10-22T08:54:44.732Z,93.81
2022-10-22T08:55:44.748Z,94.11
2022-10-22T08:56:44.713Z,93.71
2022-10-22T08:57:46.542Z,94.21
2022-10-22T08:58:44.626Z,94.01
2022-10-22T08:59:44.980Z,93.81
2022-10-22T09:00:44.653Z,93.40
2022-10-22T09:01:44.635Z,93.30
2022-10-22T09:02:44.905Z,93.60
2022-10-22T09:03:44.644Z,93.51
2022-10-22T09:04:44.679Z,93.46
2022-10-22T09:05:44.594Z,94.51
2022-10-22T09:06:44.551Z,93.51
2022-10-22T09:07:51.830Z,93.20
2022-10-22T09:08:44.539Z,93.56
2022-10-22T09:09:44.504Z,93.36
2022-10-22T09:10:44.536Z,93.21
2022-10-22T09:11:44.495Z,93.01
2022-10-22T09:12:44.487Z,92.30
2022-10-22T09:13:44.513Z,91.19
2022-10-22T09:14:44.493Z,92.50
2022-10-22T09:15:46.513Z,91.09
2022-10-22T09:16:44.452Z,92.16
2022-10-22T09:17:44.832Z,92.57
2022-10-22T09:18:44.444Z,91.15
2022-10-22T09:19:44.577Z,90.95
2022-10-22T09:20:44.483Z,90.85
2022-10-22T09:21:44.547Z,89.17
2022-10-22T09:22:44.503Z,90.19
2022-10-22T09:23:44.477Z,90.23
2022-10-22T09:24:44.489Z,91.44
2022-10-22T09:25:44.455Z,90.63
2022-10-22T09:26:44.565Z,91.24
2022-10-22T09:27:44.789Z,90.23
2022-10-22T09:28:44.452Z,90.63
2022-10-22T09:29:44.425Z,90.53
2022-10-22T09:30:44.634Z,90.33
2022-10-22T09:31:44.442Z,88.92
2022-10-22T09:32:44.536Z,89.22
2022-10-22T09:33:44.409Z,89.46
2022-10-22T09:34:44.542Z,89.22
2022-10-22T09:35:44.422Z,89.01
2022-10-22T09:36:44.539Z,88.92
2022-10-22T09:37:44.465Z,89.37
2022-10-22T09:38:44.309Z,89.58
2022-10-22T09:39:44.311Z,87.76
2022-10-22T09:40:44.302Z,87.66
2022-10-22T09:41:44.319Z,88.37
2022-10-22T09:42:44.330Z,89.37
2022-10-22T09:43:44.375Z,89.48
2022-10-22T09:44:47.659Z,88.63
2022-10-22T09:45:44.262Z,87.52
2022-10-22T09:46:44.332Z,86.85
2022-10-22T09:48:01.112Z,87.66
2022-10-22T09:48:46.320Z,88.77
2022-10-22T09:49:44.344Z,88.57
2022-10-22T09:50:44.342Z,88.17
2022-10-22T09:51:44.285Z,88.47
2022-10-22T09:52:44.594Z,88.92
2022-10-22T09:53:44.378Z,88.57
2022-10-22T09:54:44.303Z,89.01
2022-10-22T09:55:44.334Z,89.07
2022-10-22T09:56:44.297Z,88.61
2022-10-22T09:57:44.621Z,88.41
2022-10-22T09:58:44.178Z,89.07
2022-10-22T09:59:44.323Z,88.67
2022-10-22T10:00:44.210Z,88.47
2022-10-22T10:01:44.198Z,87.86
2022-10-22T10:02:45.253Z,87.56
2022-10-22T10:03:44.208Z,87.26
2022-10-22T10:04:44.333Z,88.06
2022-10-22T10:05:44.201Z,88.37
2022-10-22T10:06:44.461Z,87.62
2022-10-22T10:07:44.620Z,86.97
2022-10-22T10:08:44.127Z,86.47
2022-10-22T10:09:44.097Z,86.16
2022-10-22T10:10:44.143Z,86.27
2022-10-22T10:11:44.027Z,85.46
2022-10-22T10:12:44.029Z,85.46
2022-10-22T10:13:44.066Z,85.72
2022-10-22T10:14:44.085Z,85.62
2022-10-22T10:15:44.056Z,83.10
2022-10-22T10:16:44.062Z,84.01
2022-10-22T10:17:44.431Z,83.40
2022-10-22T10:18:44.018Z,83.95
2022-10-22T10:19:44.122Z,84.25
2022-10-22T10:20:44.244Z,83.80
2022-10-22T10:21:44.100Z,83.40
2022-10-22T10:22:44.517Z,84.21
2022-10-22T10:23:44.074Z,84.17
2022-10-22T10:24:44.090Z,83.10
2022-10-22T10:25:44.057Z,82.96
2022-10-22T10:26:44.105Z,83.56
2022-10-22T10:27:44.039Z,83.62
2022-10-22T10:28:44.041Z,84.59
2022-10-22T10:29:44.027Z,83.18
2022-10-22T10:30:44.003Z,82.14
2022-10-22T10:31:44.070Z,80.87
2022-10-22T10:32:44.198Z,81.01
2022-10-22T10:33:44.057Z,81.81
2022-10-22T10:34:44.040Z,81.57
2022-10-22T10:35:43.888Z,83.34
2022-10-22T10:36:43.893Z,81.93
2022-10-22T10:37:43.918Z,81.29
2022-10-22T10:38:43.863Z,80.49
2022-10-22T10:39:43.877Z,79.58
2022-10-22T10:40:43.878Z,80.43
2022-10-22T10:41:44.271Z,80.79
2022-10-22T10:42:44.136Z,79.79
2022-10-22T10:43:44.057Z,79.62
2022-10-22T10:44:43.914Z,79.66
2022-10-22T10:45:43.900Z,80.97
2022-10-22T10:46:43.925Z,80.06
2022-10-22T10:47:44.120Z,79.96
2022-10-22T10:48:43.964Z,81.10
2022-10-22T10:49:43.894Z,81.67
2022-10-22T10:50:43.879Z,81.77
2022-10-22T10:51:43.966Z,81.01
2022-10-22T10:52:43.919Z,81.61
2022-10-22T10:53:44.518Z,82.11
2022-10-22T10:54:50.929Z,82.21
2022-10-22T10:55:43.862Z,82.01
2022-10-22T10:56:43.826Z,83.32
2022-10-22T10:57:48.381Z,82.62
2022-10-22T10:58:43.731Z,82.82
2022-10-22T10:59:46.603Z,83.56
2022-10-22T11:00:43.877Z,82.45
2022-10-22T11:01:43.922Z,83.87
2022-10-22T11:02:43.956Z,82.25
2022-10-22T11:03:43.700Z,82.15
2022-10-22T11:04:43.818Z,83.56
2022-10-22T11:05:43.668Z,81.95
2022-10-22T11:06:43.679Z,82.25
2022-10-22T11:07:43.698Z,81.95
2022-10-22T11:08:43.746Z,82.86
2022-10-22T11:09:43.761Z,82.01
2022-10-22T11:10:43.715Z,82.21
2022-10-22T11:11:43.645Z,82.18
2022-10-22T11:12:43.871Z,81.77
2022-10-22T11:13:43.712Z,82.18
2022-10-22T11:14:43.723Z,82.01
2022-10-22T11:15:43.796Z,82.21
2022-10-22T11:16:43.685Z,81.07
2022-10-22T11:17:43.716Z,81.61
2022-10-22T11:18:43.729Z,82.01
2022-10-22T11:19:51.209Z,82.18
2022-10-22T11:20:45.940Z,81.57
2022-10-22T11:21:43.687Z,81.57
2022-10-22T11:23:00.403Z,81.47
2022-10-22T11:23:45.563Z,81.77
2022-10-22T11:24:43.705Z,82.68
2022-10-22T11:25:43.730Z,81.77
2022-10-22T11:26:43.695Z,81.98
2022-10-22T11:27:44.157Z,82.38
2022-10-22T11:28:43.683Z,82.68
2022-10-22T11:29:43.740Z,80.83
2022-10-22T11:30:43.573Z,79.96
2022-10-22T11:31:43.602Z,80.87
2022-10-22T11:32:43.752Z,80.66
2022-10-22T11:33:43.542Z,80.73
2022-10-22T11:34:43.579Z,81.63
2022-10-22T11:35:43.699Z,80.49
2022-10-22T11:36:43.508Z,78.98
2022-10-22T11:37:43.711Z,78.51
2022-10-22T11:38:43.452Z,77.40
2022-10-22T11:39:43.589Z,77.61
2022-10-22T11:40:43.461Z,78.65
2022-10-22T11:41:43.504Z,78.61
2022-10-22T11:42:43.557Z,78.81
2022-10-22T11:43:43.587Z,77.87
2022-10-22T11:44:43.650Z,78.51
2022-10-22T11:45:43.472Z,78.78
2022-10-22T11:46:43.451Z,79.02
2022-10-22T11:47:43.576Z,78.98
2022-10-22T11:48:43.520Z,79.08
2022-10-22T11:49:43.504Z,79.68
2022-10-22T11:50:43.473Z,78.74
2022-10-22T11:51:44.403Z,75.92
2022-10-22T11:52:43.419Z,76.46
2022-10-22T11:53:43.363Z,76.46
2022-10-22T11:54:43.353Z,76.93
2022-10-22T11:55:44.304Z,75.96
2022-10-22T11:56:43.318Z,76.87
2022-10-22T11:57:43.762Z,77.07
2022-10-22T11:58:43.352Z,77.63
2022-10-22T11:59:43.380Z,76.83
2022-10-22T12:00:43.358Z,76.73
2022-10-22T12:01:43.313Z,76.43
2022-10-22T12:02:43.530Z,75.68
2022-10-22T12:03:43.367Z,75.49
2022-10-22T12:04:43.635Z,75.55
2022-10-22T12:05:43.342Z,75.29
2022-10-22T12:06:43.322Z,75.35
2022-10-22T12:07:43.330Z,74.65
2022-10-22T12:08:43.429Z,74.74
2022-10-22T12:09:43.555Z,73.54
2022-10-22T12:10:43.398Z,73.98
2022-10-22T12:11:44.278Z,73.98
2022-10-22T12:12:43.482Z,73.88
2022-10-22T12:13:43.413Z,74.68
2022-10-22T12:14:43.386Z,75.09
2022-10-22T12:15:43.452Z,74.38
2022-10-22T12:16:55.792Z,74.88
2022-10-22T12:17:45.384Z,74.78
2022-10-22T12:18:43.273Z,73.68
2022-10-22T12:19:43.207Z,74.88
2022-10-22T12:20:43.204Z,73.98
2022-10-22T12:21:43.633Z,74.15
2022-10-22T12:22:43.455Z,74.35
2022-10-22T12:23:43.234Z,73.30
2022-10-22T12:24:43.282Z,74.61
2022-10-22T12:25:43.161Z,74.57
2022-10-22T12:26:43.160Z,74.68
2022-10-22T12:27:43.756Z,73.47
2022-10-22T12:28:43.545Z,73.84
2022-10-22T12:29:43.223Z,73.68
2022-10-22T12:30:43.151Z,74.98
2022-10-22T12:31:43.169Z,74.95
2022-10-22T12:32:43.257Z,74.82
2022-10-22T12:33:43.169Z,74.75
2022-10-22T12:34:43.220Z,74.82
2022-10-22T12:35:43.160Z,74.98
2022-10-22T12:36:43.159Z,73.24
2022-10-22T12:37:43.571Z,71.83
2022-10-22T12:38:43.169Z,69.99
2022-10-22T12:39:43.170Z,70.46
2022-10-22T12:40:45.959Z,69.76
2022-10-22T12:41:45.014Z,71.16
2022-10-22T12:42:43.181Z,71.63
2022-10-22T12:43:43.076Z,73.98
2022-10-22T12:44:42.984Z,74.62
2022-10-22T12:45:42.979Z,74.45
2022-10-22T12:46:42.999Z,75.46
2022-10-22T12:47:43.323Z,75.46
2022-10-22T12:48:43.047Z,76.49
2022-10-22T12:49:43.069Z,71.66
2022-10-22T12:50:43.011Z,69.73
2022-10-22T12:51:43.008Z,69.82
2022-10-22T12:52:43.222Z,70.12
2022-10-22T12:53:43.034Z,71.80
2022-10-22T12:54:43.009Z,73.58
2022-10-22T12:55:42.978Z,74.72
2022-10-22T12:56:42.965Z,75.79
2022-10-22T12:57:43.002Z,76.20